Accueil
METAR-TAF:

METAR-TAF

Aéroports :

Aéroport des Îles-de-la-Madeleine

Îles de la Madeleine, Québec, Canada

latitude: 47-25N, longitude: 061-47W, altitude: 10 m

Observation

Le bulletin a été fait il y a 3 heures et 37 minutes, à 03:00 UTC
Vent 10 kt de sud-ouest avec des rafales jusqu'à 16 kt
Température -3°C
Humidité 74%
Pression 1015 hPa
Visibilité: 24.1 km
Ciel clair

METAR: CYGR 170300Z 23010G16KT 15SM SKC M03/M07 A2998 RMK LAST STFD OBS/NXT 170900 Z SLP155

Heure: 01:37 (06:37 UTC)

Prévision

Le bulletin a été fait il y a 10 heures et 59 minutes, à 19:38 UTC
Prévision valable du 16 à 20 UTC au 17 à 03 UTC
Vent 15 kt de ouest/sud-ouest avec des rafales jusqu'à 25 kt
Visibilité: 10 km
Quelques nuages à une hauteur de 3000 ft

TAF: CYGR 161938Z 1620/1703 25015G25KT P6SM FEW030 RMK NXT FCST WILL BE ISSUED AT 171145Z

Observations et prévisions météorologiques de plus de 4000 aéroports (messages METAR et TAF).

Les stations disponibles sont représentées par des disques jaunes et rouges sur la carte.

Passer la souris dessus pour voir le nom de la station.

Cliquer dessus pour voir les observations et prévisions météorologiques.

Pour changer de carte: cliquez sur les boutons verts avec une croix noire pour zoomer, sur le bouton vert avec un tiret pour effectuer un zoom arrière, ou sur les flèches vertes pour les cartes adjacentes.


METAR-TAF: